createdAt,value
2023-05-23T00:02:10.554Z,32.80
2023-05-23T00:04:39.588Z,33.13
2023-05-23T00:07:08.128Z,32.13
2023-05-23T00:09:36.345Z,30.93
2023-05-23T00:12:08.760Z,30.17
2023-05-23T00:14:40.707Z,31.43
2023-05-23T00:17:12.277Z,30.97
2023-05-23T00:19:45.785Z,29.83
2023-05-23T00:22:17.881Z,30.37
2023-05-23T00:24:46.388Z,30.07
2023-05-23T00:27:16.385Z,30.60
2023-05-23T00:29:44.430Z,32.23
2023-05-23T00:32:13.590Z,31.00
2023-05-23T00:34:41.755Z,30.57
2023-05-23T00:37:12.147Z,30.53
2023-05-23T00:39:40.653Z,30.07
2023-05-23T00:42:11.021Z,29.70
2023-05-23T00:44:40.447Z,28.50
2023-05-23T00:47:09.789Z,29.37
2023-05-23T00:49:41.372Z,30.27
2023-05-23T00:52:11.144Z,29.47
2023-05-23T00:54:41.359Z,29.17
2023-05-23T00:57:12.626Z,28.93
2023-05-23T00:59:45.818Z,29.33
2023-05-23T01:02:19.683Z,30.07
2023-05-23T01:04:49.100Z,30.03
2023-05-23T01:07:20.614Z,29.37
2023-05-23T01:09:48.933Z,29.20
2023-05-23T01:12:27.606Z,30.23
2023-05-23T01:15:06.745Z,30.10
2023-05-23T01:17:43.082Z,29.80
2023-05-23T01:20:14.153Z,29.73
2023-05-23T01:23:08.312Z,31.00
2023-05-23T01:25:49.680Z,30.13
2023-05-23T01:28:27.089Z,28.83
2023-05-23T01:30:59.239Z,29.37
2023-05-23T01:33:30.873Z,29.80
2023-05-23T01:36:02.656Z,29.83
2023-05-23T01:38:32.429Z,29.17
2023-05-23T01:41:02.911Z,28.33
2023-05-23T01:43:38.457Z,30.27
2023-05-23T01:46:08.683Z,30.37
2023-05-23T01:48:42.997Z,30.80
2023-05-23T01:51:11.636Z,31.53
2023-05-23T01:53:48.243Z,32.10
2023-05-23T01:56:19.203Z,32.50
2023-05-23T01:58:51.038Z,32.67
2023-05-23T02:01:19.596Z,33.83
2023-05-23T02:03:50.583Z,33.33
2023-05-23T02:06:19.736Z,34.80
2023-05-23T02:08:48.188Z,35.63
2023-05-23T02:11:17.111Z,36.33
2023-05-23T02:13:45.130Z,36.03
2023-05-23T02:16:14.865Z,35.60
2023-05-23T02:18:46.252Z,32.33
2023-05-23T02:21:16.821Z,33.40
2023-05-23T02:23:51.480Z,32.47
2023-05-23T02:26:20.012Z,31.50
2023-05-23T02:28:48.589Z,30.07
2023-05-23T02:31:20.259Z,28.27
2023-05-23T02:33:49.154Z,27.97
2023-05-23T02:36:19.849Z,25.57
2023-05-23T02:38:50.769Z,24.30
2023-05-23T02:41:19.533Z,23.67
2023-05-23T02:43:48.490Z,23.10
2023-05-23T02:46:18.198Z,23.03
2023-05-23T02:48:50.524Z,23.17
2023-05-23T02:51:18.364Z,23.10
2023-05-23T02:53:49.608Z,21.70
2023-05-23T02:56:18.943Z,21.83
2023-05-23T02:58:46.911Z,21.47
2023-05-23T03:01:18.214Z,19.13
2023-05-23T03:03:48.432Z,17.47
2023-05-23T03:06:22.590Z,17.03
2023-05-23T03:08:50.598Z,16.80
2023-05-23T03:11:19.005Z,17.47
2023-05-23T03:13:48.815Z,16.83
2023-05-23T03:16:17.143Z,16.77
2023-05-23T03:18:45.034Z,17.03
2023-05-23T03:21:12.962Z,16.40
2023-05-23T03:23:42.376Z,16.60
2023-05-23T03:26:10.751Z,16.77
2023-05-23T03:28:39.045Z,16.73
2023-05-23T03:31:08.151Z,15.80
2023-05-23T03:33:39.688Z,16.83
2023-05-23T03:36:11.265Z,16.70
2023-05-23T03:38:43.196Z,16.73
2023-05-23T03:41:11.570Z,16.63
2023-05-23T03:43:39.882Z,16.20
2023-05-23T03:46:10.439Z,15.87
2023-05-23T03:48:41.885Z,16.30
2023-05-23T03:51:10.086Z,15.07
2023-05-23T03:53:38.358Z,15.30
2023-05-23T03:56:10.924Z,13.50
2023-05-23T03:58:39.562Z,13.73
2023-05-23T04:01:11.022Z,11.33
2023-05-23T04:03:39.384Z,11.23
2023-05-23T04:06:12.962Z,11.13
2023-05-23T04:08:43.866Z,12.63
2023-05-23T04:11:14.632Z,11.60
2023-05-23T04:13:47.063Z,11.70
2023-05-23T04:16:18.111Z,10.80
2023-05-23T04:18:48.663Z,11.33
2023-05-23T04:21:20.542Z,12.13
2023-05-23T04:23:50.532Z,11.93
2023-05-23T04:26:20.758Z,12.10
2023-05-23T04:28:49.105Z,12.43
2023-05-23T04:31:20.271Z,13.40
2023-05-23T04:33:53.063Z,12.63
2023-05-23T04:36:26.540Z,12.77
2023-05-23T04:38:54.516Z,13.03
2023-05-23T04:41:25.531Z,13.27
2023-05-23T04:43:55.607Z,13.57
2023-05-23T04:46:29.298Z,13.57
2023-05-23T04:48:59.024Z,14.40
2023-05-23T04:51:28.693Z,14.27
2023-05-23T04:54:00.259Z,15.37
2023-05-23T04:56:30.230Z,17.70
2023-05-23T04:58:59.345Z,15.17
2023-05-23T05:01:29.791Z,18.07
2023-05-23T05:03:59.747Z,19.63
2023-05-23T05:06:29.741Z,18.97
2023-05-23T05:09:01.735Z,17.60
2023-05-23T05:11:34.799Z,18.03
2023-05-23T05:14:02.771Z,16.87
2023-05-23T05:16:35.059Z,18.43
2023-05-23T05:19:04.628Z,16.17
2023-05-23T05:21:33.205Z,15.90
2023-05-23T05:24:02.197Z,16.20
2023-05-23T05:26:34.874Z,17.37
2023-05-23T05:29:07.945Z,16.30
2023-05-23T05:31:38.259Z,15.17
2023-05-23T05:34:09.201Z,15.70
2023-05-23T05:36:38.701Z,15.50
2023-05-23T05:39:07.207Z,16.43
2023-05-23T05:41:37.150Z,14.93
2023-05-23T05:44:06.503Z,12.57
2023-05-23T05:46:34.640Z,12.60
2023-05-23T05:49:03.450Z,12.30
2023-05-23T05:51:34.039Z,12.10
2023-05-23T05:54:02.618Z,12.07
2023-05-23T05:56:31.271Z,11.17
2023-05-23T05:59:02.528Z,12.17
2023-05-23T06:01:31.289Z,10.90
2023-05-23T06:04:01.141Z,10.53
2023-05-23T06:06:29.687Z,11.33
2023-05-23T06:08:58.466Z,11.80
2023-05-23T06:11:27.776Z,11.80
2023-05-23T06:13:57.674Z,11.20
2023-05-23T06:16:28.387Z,10.70
2023-05-23T06:19:07.007Z,10.60
2023-05-23T06:21:35.610Z,10.20
2023-05-23T06:24:04.646Z,10.17
2023-05-23T06:26:35.149Z,10.60
2023-05-23T06:29:03.127Z,9.87
2023-05-23T06:31:36.791Z,9.23
2023-05-23T06:34:06.919Z,9.30
2023-05-23T06:36:41.705Z,8.77
2023-05-23T06:39:11.181Z,8.20
2023-05-23T06:41:45.190Z,10.40
2023-05-23T06:44:23.767Z,8.60
2023-05-23T06:47:00.574Z,8.50
2023-05-23T06:49:31.526Z,9.07
2023-05-23T06:52:00.830Z,8.53
2023-05-23T06:54:43.109Z,9.00
2023-05-23T06:57:14.346Z,8.90
2023-05-23T06:59:46.732Z,8.90
2023-05-23T07:02:16.936Z,8.57
2023-05-23T07:04:45.638Z,8.13
2023-05-23T07:07:18.104Z,8.13
2023-05-23T07:09:53.463Z,7.67
2023-05-23T07:12:24.955Z,6.73
2023-05-23T07:14:53.851Z,5.17
2023-05-23T07:17:26.247Z,5.70
2023-05-23T07:19:56.715Z,5.67
2023-05-23T07:22:25.143Z,5.80
2023-05-23T07:24:57.758Z,5.70
2023-05-23T07:27:30.897Z,5.20
2023-05-23T07:29:59.802Z,4.93
2023-05-23T07:32:29.701Z,4.80
2023-05-23T07:35:00.689Z,4.23
2023-05-23T07:37:28.621Z,3.90
2023-05-23T07:40:02.288Z,4.30
2023-05-23T07:42:30.928Z,4.57
2023-05-23T07:45:05.274Z,4.30
2023-05-23T07:47:38.252Z,4.60
2023-05-23T07:50:08.507Z,4.40
2023-05-23T07:52:39.289Z,4.50
2023-05-23T07:55:09.735Z,4.33
2023-05-23T07:57:46.465Z,4.50
2023-05-23T08:00:17.705Z,4.50
2023-05-23T08:02:48.230Z,3.77
2023-05-23T08:05:21.662Z,4.07
2023-05-23T08:07:56.414Z,4.23
2023-05-23T08:10:28.403Z,4.10
2023-05-23T08:13:02.871Z,4.30
2023-05-23T08:15:31.906Z,4.03
2023-05-23T08:18:08.357Z,3.90
2023-05-23T08:20:36.388Z,4.00
2023-05-23T08:23:12.690Z,4.30
2023-05-23T08:25:45.522Z,4.10
2023-05-23T08:28:15.436Z,2.90
2023-05-23T08:30:47.032Z,3.57
2023-05-23T08:33:20.269Z,3.20
2023-05-23T08:35:49.357Z,3.40
2023-05-23T08:38:21.985Z,2.93
2023-05-23T08:40:53.269Z,3.07
2023-05-23T08:43:23.252Z,2.93
2023-05-23T08:45:56.485Z,3.33
2023-05-23T08:48:30.831Z,3.30
2023-05-23T08:51:01.119Z,3.23
2023-05-23T08:53:39.662Z,3.40
2023-05-23T08:56:10.326Z,3.27
2023-05-23T08:58:45.714Z,2.97
2023-05-23T09:01:19.308Z,2.93
2023-05-23T09:03:50.315Z,2.80
2023-05-23T09:06:30.906Z,2.70
2023-05-23T09:09:00.494Z,2.53
2023-05-23T09:11:36.880Z,2.90
2023-05-23T09:14:07.914Z,3.00
2023-05-23T09:16:39.928Z,2.60
2023-05-23T09:19:16.157Z,2.33
2023-05-23T09:21:47.908Z,2.80
2023-05-23T09:24:16.560Z,3.10
2023-05-23T09:26:50.905Z,3.03
2023-05-23T09:29:23.991Z,3.10
2023-05-23T09:31:56.585Z,2.83
2023-05-23T09:34:28.594Z,2.97
2023-05-23T09:36:57.019Z,3.00
2023-05-23T09:39:26.877Z,2.77
2023-05-23T09:42:01.233Z,2.90
2023-05-23T09:44:31.402Z,2.87
2023-05-23T09:47:07.665Z,2.70
2023-05-23T09:49:41.086Z,3.00
2023-05-23T09:52:11.527Z,3.20
2023-05-23T09:54:41.776Z,2.90
2023-05-23T09:57:12.334Z,2.70
2023-05-23T09:59:42.838Z,2.67
2023-05-23T10:02:17.225Z,2.73
2023-05-23T10:04:53.004Z,3.00
2023-05-23T10:07:27.756Z,2.57
2023-05-23T10:12:53.034Z,2.40
2023-05-23T10:15:26.281Z,2.93
2023-05-23T10:18:08.852Z,2.70
2023-05-23T10:20:44.859Z,3.20
2023-05-23T10:23:25.724Z,2.60
2023-05-23T10:25:54.431Z,3.00
2023-05-23T10:28:27.256Z,2.73
2023-05-23T10:30:57.411Z,2.97
2023-05-23T10:33:26.449Z,3.00
2023-05-23T10:36:05.369Z,3.00
2023-05-23T10:38:40.143Z,2.77
2023-05-23T10:41:13.712Z,3.10
2023-05-23T10:43:47.428Z,2.43
2023-05-23T10:46:16.834Z,2.50
2023-05-23T10:48:49.723Z,2.40
2023-05-23T10:51:20.469Z,2.50
2023-05-23T10:53:58.234Z,2.10
2023-05-23T10:56:29.749Z,2.77
2023-05-23T10:58:59.435Z,3.40
2023-05-23T11:01:29.667Z,3.30
2023-05-23T11:03:59.361Z,3.53
2023-05-23T11:06:35.861Z,3.30
2023-05-23T11:09:09.294Z,3.40
2023-05-23T11:14:55.995Z,3.47
2023-05-23T11:17:35.962Z,3.60
2023-05-23T11:20:08.383Z,3.60
2023-05-23T11:22:40.023Z,3.13
2023-05-23T11:25:10.597Z,3.23
2023-05-23T11:27:42.453Z,2.83
2023-05-23T11:30:13.819Z,2.43
2023-05-23T11:32:43.328Z,3.07
2023-05-23T11:35:13.123Z,2.87
2023-05-23T11:37:45.936Z,2.80
2023-05-23T11:40:29.439Z,2.80
2023-05-23T11:43:16.681Z,2.50
2023-05-23T11:45:51.900Z,2.80
2023-05-23T11:48:21.416Z,3.00
2023-05-23T11:50:54.020Z,2.60
2023-05-23T11:53:30.136Z,2.60
2023-05-23T11:56:00.572Z,3.20
2023-05-23T11:58:33.769Z,2.10
2023-05-23T12:01:03.498Z,2.20
2023-05-23T12:03:32.064Z,2.00
2023-05-23T12:06:01.196Z,1.67
2023-05-23T12:08:33.706Z,2.03
2023-05-23T12:11:03.708Z,2.07
2023-05-23T12:13:32.595Z,1.70
2023-05-23T12:16:02.541Z,1.60
2023-05-23T12:18:32.975Z,1.70
2023-05-23T12:21:03.170Z,1.47
2023-05-23T12:23:36.420Z,1.27
2023-05-23T12:26:08.025Z,1.30
2023-05-23T12:28:38.555Z,1.30
2023-05-23T12:31:12.350Z,2.27
2023-05-23T12:33:43.971Z,9.27
2023-05-23T12:36:12.719Z,1.30
2023-05-23T12:38:45.846Z,1.20
2023-05-23T12:41:19.772Z,1.00
2023-05-23T12:43:54.324Z,0.80
2023-05-23T12:46:25.281Z,1.00
2023-05-23T12:48:58.387Z,1.17
2023-05-23T12:51:29.466Z,1.20
2023-05-23T12:54:06.363Z,1.70
2023-05-23T12:56:34.822Z,5.87
2023-05-23T12:59:06.799Z,2.50
2023-05-23T13:01:37.915Z,5.27
2023-05-23T13:04:08.021Z,4.40
2023-05-23T13:06:41.487Z,1.90
2023-05-23T13:09:11.459Z,1.60
2023-05-23T13:11:41.729Z,1.60
2023-05-23T13:14:13.712Z,2.00
2023-05-23T13:16:42.052Z,1.60
2023-05-23T13:19:21.995Z,1.87
2023-05-23T13:21:53.109Z,1.53
2023-05-23T13:24:27.705Z,2.03
2023-05-23T13:26:55.822Z,1.80
2023-05-23T13:29:23.976Z,1.63
2023-05-23T13:31:53.814Z,1.80
2023-05-23T13:34:25.523Z,2.00
2023-05-23T13:36:53.495Z,2.40
2023-05-23T13:39:24.840Z,2.30
2023-05-23T13:41:54.138Z,2.30
2023-05-23T13:44:22.397Z,2.70
2023-05-23T13:46:51.227Z,2.50
2023-05-23T13:49:23.761Z,2.80
2023-05-23T13:51:51.654Z,2.70
2023-05-23T13:54:23.641Z,2.90
2023-05-23T13:56:52.268Z,2.77
2023-05-23T13:59:21.624Z,2.90
2023-05-23T14:01:50.135Z,2.80
2023-05-23T14:04:18.217Z,2.73
2023-05-23T14:06:46.688Z,2.90
2023-05-23T14:09:16.136Z,2.33
2023-05-23T14:11:46.311Z,2.60
2023-05-23T14:14:14.886Z,2.83
2023-05-23T14:16:43.343Z,2.97
2023-05-23T14:19:12.467Z,3.10
2023-05-23T14:21:44.888Z,3.10
2023-05-23T14:24:14.281Z,2.80
2023-05-23T14:26:45.112Z,2.63
2023-05-23T14:29:18.817Z,3.10
2023-05-23T14:31:52.919Z,4.03
2023-05-23T14:34:21.437Z,3.63
2023-05-23T14:36:52.235Z,3.63
2023-05-23T14:39:20.339Z,6.70
2023-05-23T14:41:52.205Z,9.10
2023-05-23T14:44:33.761Z,4.00
2023-05-23T14:47:04.992Z,4.10
2023-05-23T14:49:33.754Z,4.43
2023-05-23T14:52:04.522Z,4.57
2023-05-23T14:54:33.136Z,4.90
2023-05-23T14:57:01.505Z,4.50
2023-05-23T14:59:31.968Z,4.97
2023-05-23T15:02:12.626Z,4.70
2023-05-23T15:04:50.108Z,4.30
2023-05-23T15:07:25.961Z,4.10
2023-05-23T15:09:55.018Z,4.13
2023-05-23T15:12:24.840Z,4.07
2023-05-23T15:15:03.057Z,4.20
2023-05-23T15:17:37.954Z,4.13
2023-05-23T15:20:08.402Z,4.23
2023-05-23T15:22:39.864Z,3.90
2023-05-23T15:25:14.395Z,4.10
2023-05-23T15:27:46.240Z,4.23
2023-05-23T15:30:19.261Z,4.27
2023-05-23T15:32:57.836Z,4.37
2023-05-23T15:35:27.607Z,4.00
2023-05-23T15:37:56.549Z,4.03
2023-05-23T15:40:42.878Z,3.17
2023-05-23T15:43:16.728Z,2.87
2023-05-23T15:45:47.318Z,3.10
2023-05-23T15:48:17.944Z,3.03
2023-05-23T15:50:47.496Z,2.50
2023-05-23T15:53:16.008Z,2.50
2023-05-23T15:55:45.901Z,2.00
2023-05-23T15:58:20.711Z,2.30
2023-05-23T16:00:53.310Z,2.73
2023-05-23T16:03:22.780Z,2.37
2023-05-23T16:05:53.048Z,2.17
2023-05-23T16:08:21.755Z,2.40
2023-05-23T16:10:51.800Z,2.83
2023-05-23T16:13:20.936Z,2.90
2023-05-23T16:15:55.403Z,3.10
2023-05-23T16:18:24.167Z,2.50
2023-05-23T16:20:57.103Z,2.57
2023-05-23T16:23:29.338Z,3.20
2023-05-23T16:26:01.651Z,3.10
2023-05-23T16:28:29.588Z,2.90
2023-05-23T16:31:14.479Z,3.10
2023-05-23T16:33:44.340Z,2.97
2023-05-23T16:36:13.581Z,3.30
2023-05-23T16:38:43.346Z,3.40
2023-05-23T16:41:12.141Z,2.93
2023-05-23T16:43:40.439Z,2.33
2023-05-23T16:46:10.323Z,2.70
2023-05-23T16:48:44.105Z,2.33
2023-05-23T16:51:14.952Z,2.20
2023-05-23T16:53:42.935Z,2.10
2023-05-23T16:56:13.022Z,2.30
2023-05-23T16:58:41.731Z,2.30
2023-05-23T17:01:13.965Z,2.47
2023-05-23T17:03:50.277Z,2.47
2023-05-23T17:06:21.635Z,2.60
2023-05-23T17:08:49.530Z,2.60
2023-05-23T17:11:18.234Z,2.43
2023-05-23T17:13:47.051Z,2.57
2023-05-23T17:16:20.466Z,2.70
2023-05-23T17:18:52.264Z,2.50
2023-05-23T17:21:24.009Z,2.50
2023-05-23T17:23:56.305Z,2.47
2023-05-23T17:26:27.058Z,3.00
2023-05-23T17:28:58.077Z,3.10
2023-05-23T17:31:30.729Z,2.90
2023-05-23T17:34:00.686Z,3.27
2023-05-23T17:36:35.185Z,3.50
2023-05-23T17:39:04.140Z,2.83
2023-05-23T17:41:33.327Z,2.90
2023-05-23T17:44:02.157Z,3.33
2023-05-23T17:46:37.906Z,3.10
2023-05-23T17:49:10.012Z,3.20
2023-05-23T17:51:39.935Z,2.83
2023-05-23T17:54:09.394Z,3.07
2023-05-23T17:56:38.134Z,3.40
2023-05-23T17:59:07.351Z,3.30
2023-05-23T18:01:39.521Z,3.37
2023-05-23T18:04:09.331Z,3.10
2023-05-23T18:06:47.002Z,3.33
2023-05-23T18:09:17.487Z,3.00
2023-05-23T18:11:46.639Z,2.90
2023-05-23T18:14:16.696Z,3.13
2023-05-23T18:16:48.264Z,2.90
2023-05-23T18:19:19.276Z,3.10
2023-05-23T18:21:52.864Z,3.03
2023-05-23T18:24:22.278Z,2.97
2023-05-23T18:26:55.058Z,2.77
2023-05-23T18:29:25.538Z,2.97
2023-05-23T18:31:54.990Z,3.60
2023-05-23T18:34:23.339Z,3.20
2023-05-23T18:36:59.809Z,3.37
2023-05-23T18:39:28.027Z,3.10
2023-05-23T18:41:57.727Z,3.00
2023-05-23T18:44:28.332Z,3.00
2023-05-23T18:46:59.399Z,3.10
2023-05-23T18:49:31.202Z,2.80
2023-05-23T18:51:59.495Z,3.30
2023-05-23T18:54:28.519Z,3.30
2023-05-23T18:56:57.990Z,3.20
2023-05-23T18:59:27.875Z,3.17
2023-05-23T19:02:03.101Z,3.43
2023-05-23T19:04:40.939Z,3.20
2023-05-23T19:07:10.010Z,3.53
2023-05-23T19:09:39.468Z,3.20
2023-05-23T19:12:10.873Z,3.80
2023-05-23T19:14:39.560Z,2.97
2023-05-23T19:17:18.030Z,3.50
2023-05-23T19:19:46.620Z,3.40
2023-05-23T19:22:16.161Z,3.27
2023-05-23T19:24:46.432Z,4.07
2023-05-23T19:27:17.050Z,3.77
2023-05-23T19:29:45.734Z,3.17
2023-05-23T19:32:18.661Z,4.27
2023-05-23T19:34:47.927Z,4.00
2023-05-23T19:37:24.036Z,3.37
2023-05-23T19:39:57.707Z,3.40
2023-05-23T19:42:29.303Z,3.07
2023-05-23T19:44:58.240Z,3.40
2023-05-23T19:47:31.051Z,3.80
2023-05-23T19:49:59.436Z,3.73
2023-05-23T19:52:30.178Z,3.77
2023-05-23T19:55:03.861Z,3.27
2023-05-23T19:57:33.971Z,3.47
2023-05-23T20:00:05.389Z,4.10
2023-05-23T20:02:40.043Z,3.40
2023-05-23T20:05:12.015Z,3.90
2023-05-23T20:07:42.467Z,3.73
2023-05-23T20:10:10.924Z,3.67
2023-05-23T20:12:43.757Z,3.70
2023-05-23T20:15:14.575Z,3.00
2023-05-23T20:17:46.695Z,3.90
2023-05-23T20:20:14.832Z,3.43
2023-05-23T20:22:46.023Z,3.63
2023-05-23T20:25:14.117Z,3.67
2023-05-23T20:27:43.101Z,3.23
2023-05-23T20:30:12.287Z,3.70
2023-05-23T20:32:43.044Z,3.70
2023-05-23T20:35:13.076Z,3.57
2023-05-23T20:37:44.215Z,3.10
2023-05-23T20:40:14.509Z,4.07
2023-05-23T20:42:44.993Z,3.67
2023-05-23T20:45:13.933Z,3.40
2023-05-23T20:47:43.847Z,3.87
2023-05-23T20:50:14.964Z,5.03
2023-05-23T20:52:43.727Z,3.70
2023-05-23T20:55:15.903Z,3.67
2023-05-23T20:57:44.593Z,3.90
2023-05-23T21:00:17.675Z,3.13
2023-05-23T21:02:57.917Z,4.97
2023-05-23T21:05:29.880Z,3.97
2023-05-23T21:08:13.127Z,3.47
2023-05-23T21:10:41.674Z,3.30
2023-05-23T21:13:10.009Z,3.40
2023-05-23T21:15:38.651Z,3.30
2023-05-23T21:18:10.543Z,3.27
2023-05-23T21:20:41.641Z,4.13
2023-05-23T21:23:13.225Z,3.77
2023-05-23T21:25:42.058Z,3.30
2023-05-23T21:28:12.581Z,3.60
2023-05-23T21:30:43.886Z,3.40
2023-05-23T21:33:12.972Z,4.00
2023-05-23T21:35:45.439Z,3.57
2023-05-23T21:38:13.754Z,3.37
2023-05-23T21:40:43.696Z,3.57
2023-05-23T21:43:11.875Z,3.10
2023-05-23T21:45:40.068Z,4.27
2023-05-23T21:48:15.235Z,3.60
2023-05-23T21:50:47.873Z,3.77
2023-05-23T21:53:18.542Z,3.57
2023-05-23T21:55:54.849Z,3.80
2023-05-23T21:58:28.326Z,3.90
2023-05-23T22:01:18.736Z,3.30
2023-05-23T22:07:16.916Z,3.80
2023-05-23T22:12:32.620Z,3.50
2023-05-23T22:15:03.069Z,3.73
2023-05-23T22:17:34.381Z,3.60
2023-05-23T22:20:05.619Z,3.90
2023-05-23T22:22:34.238Z,3.60
2023-05-23T22:25:07.056Z,3.97
2023-05-23T22:27:36.668Z,3.80
2023-05-23T22:30:06.549Z,4.20
2023-05-23T22:32:34.775Z,4.00
2023-05-23T22:35:08.353Z,3.67
2023-05-23T22:37:38.085Z,3.47
2023-05-23T22:40:11.263Z,4.30
2023-05-23T22:45:39.433Z,4.13
2023-05-23T22:48:09.785Z,4.10
2023-05-23T22:50:45.158Z,3.83
2023-05-23T22:53:16.830Z,3.93
2023-05-23T22:55:47.069Z,4.40
2023-05-23T22:58:17.739Z,4.07
2023-05-23T23:00:46.329Z,4.10
2023-05-23T23:03:18.953Z,3.80
2023-05-23T23:05:55.519Z,3.73
2023-05-23T23:08:24.495Z,3.90
2023-05-23T23:10:57.657Z,4.23
2023-05-23T23:13:31.113Z,3.90
2023-05-23T23:16:01.972Z,4.07
2023-05-23T23:18:30.672Z,3.80
2023-05-23T23:21:01.349Z,4.27
2023-05-23T23:23:37.707Z,3.70
2023-05-23T23:26:10.300Z,3.57
2023-05-23T23:28:43.595Z,3.63
2023-05-23T23:31:19.321Z,3.93
2023-05-23T23:33:47.855Z,3.83
2023-05-23T23:36:16.335Z,4.77
2023-05-23T23:38:50.651Z,3.70
2023-05-23T23:41:22.466Z,4.23
2023-05-23T23:43:54.838Z,3.83
2023-05-23T23:46:50.906Z,4.17
2023-05-23T23:49:20.569Z,4.00
2023-05-23T23:51:53.662Z,3.83
2023-05-23T23:54:21.561Z,4.40
2023-05-23T23:56:53.897Z,4.17
2023-05-23T23:59:22.059Z,4.17
